Time;durP1;ratioP1;P1;durP2;ratioP2;P2;SDS_P1;SDS_P2;PMS_P1;PMS_P2;Temp;Humidity;BMP_temperature;BMP_pressure;BME280_temperature;BME280_humidity;BME280_pressure;Samples;Min_cycle;Max_cycle;Signal;HPM_P1;HPM_P2
2023/06/30 00:00:12;;;;;;;5.22;4.40;;;;;;;;;;2557055;23;20405;-93
2023/06/30 00:01:12;;;;;;;6.10;3.97;;;;;;;;;;2549888;23;20085;-92
2023/06/30 00:02:15;;;;;;;4.00;3.60;;;;;;;;;;2556540;23;20418;-91
2023/06/30 00:03:15;;;;;;;7.13;4.13;;;;;;;;;;2549915;23;20084;-91
2023/06/30 00:04:21;;;;;;;4.90;3.92;;;;;;;;;;2533133;23;20013;-91
2023/06/30 00:05:22;;;;;;;8.20;4.25;;;;;;;;;;2547059;23;19997;-91
2023/06/30 00:06:23;;;;;;;4.43;3.90;;;;;;;;;;2559562;23;20012;-91
2023/06/30 00:07:24;;;;;;;4.72;4.25;;;;;;;;;;2557596;23;20527;-90
2023/06/30 00:08:27;;;;;;;4.40;4.00;;;;;;;;;;2544484;23;20343;-91
2023/06/30 00:09:28;;;;;;;5.50;4.05;;;;;;;;;;2544947;23;20089;-91
2023/06/30 00:10:28;;;;;;;6.80;3.95;;;;;;;;;;2561155;23;20378;-91
2023/06/30 00:11:31;;;;;;;7.53;4.25;;;;;;;;;;2561880;23;19993;-91
2023/06/30 00:12:34;;;;;;;3.85;3.50;;;;;;;;;;2562023;23;20001;-91
2023/06/30 00:13:37;;;;;;;5.10;4.45;;;;;;;;;;2562031;23;20394;-92
2023/06/30 00:14:38;;;;;;;5.45;3.95;;;;;;;;;;2561989;23;19997;-91
2023/06/30 00:15:38;;;;;;;9.48;4.07;;;;;;;;;;2557488;23;19997;-91
2023/06/30 00:16:41;;;;;;;6.60;3.95;;;;;;;;;;2545214;23;20080;-92
2023/06/30 00:17:42;;;;;;;5.82;4.13;;;;;;;;;;2561595;23;19993;-91
2023/06/30 00:18:48;;;;;;;4.95;4.10;;;;;;;;;;2557564;23;20008;-90
2023/06/30 00:19:50;;;;;;;4.82;4.43;;;;;;;;;;2551056;23;19997;-91
2023/06/30 00:20:54;;;;;;;4.50;4.10;;;;;;;;;;2546222;23;20009;-90
2023/06/30 00:21:55;;;;;;;7.45;4.03;;;;;;;;;;2561707;23;20053;-92
2023/06/30 00:22:58;;;;;;;5.60;4.50;;;;;;;;;;2562217;23;20611;-92
2023/06/30 00:24:01;;;;;;;6.38;4.50;;;;;;;;;;2562407;23;19989;-91
2023/06/30 00:25:02;;;;;;;4.47;4.07;;;;;;;;;;2557273;23;20431;-91
2023/06/30 00:26:05;;;;;;;5.00;3.83;;;;;;;;;;2561632;23;20143;-92
2023/06/30 00:27:06;;;;;;;4.68;3.92;;;;;;;;;;2558277;23;20051;-93
2023/06/30 00:28:09;;;;;;;4.22;3.70;;;;;;;;;;2561844;23;19985;-94
2023/06/30 00:29:10;;;;;;;4.60;4.20;;;;;;;;;;2557124;23;19996;-91
2023/06/30 00:30:11;;;;;;;5.07;4.03;;;;;;;;;;2552631;23;19993;-92
2023/06/30 00:31:14;;;;;;;5.38;4.28;;;;;;;;;;2557322;23;19993;-92
2023/06/30 00:32:14;;;;;;;5.45;3.92;;;;;;;;;;2561483;23;20316;-92
2023/06/30 00:33:15;;;;;;;4.78;3.90;;;;;;;;;;2557446;23;19993;-92
2023/06/30 00:34:15;;;;;;;5.28;4.05;;;;;;;;;;2559931;23;20068;-92
2023/06/30 00:35:16;;;;;;;4.82;3.70;;;;;;;;;;2557108;23;20020;-91
2023/06/30 00:36:16;;;;;;;4.60;3.95;;;;;;;;;;2561382;23;20001;-91
2023/06/30 00:37:16;;;;;;;7.18;3.70;;;;;;;;;;2556922;23;20082;-92
2023/06/30 00:38:17;;;;;;;4.90;3.83;;;;;;;;;;2556673;23;19993;-91
2023/06/30 00:39:18;;;;;;;5.30;4.03;;;;;;;;;;2561260;23;20489;-92
2023/06/30 00:40:20;;;;;;;4.40;4.00;;;;;;;;;;2556855;23;19993;-91
2023/06/30 00:41:22;;;;;;;5.45;3.78;;;;;;;;;;2561162;23;19997;-92
2023/06/30 00:42:23;;;;;;;4.82;3.45;;;;;;;;;;2557017;23;20389;-93
2023/06/30 00:43:26;;;;;;;3.95;3.63;;;;;;;;;;2544942;23;20392;-92
2023/06/30 00:44:26;;;;;;;4.72;3.97;;;;;;;;;;2545007;23;20005;-93
2023/06/30 00:45:27;;;;;;;5.15;3.80;;;;;;;;;;2544958;23;20028;-93
2023/06/30 00:46:27;;;;;;;3.97;3.45;;;;;;;;;;2544353;23;20095;-93
2023/06/30 00:47:28;;;;;;;4.88;3.92;;;;;;;;;;2561563;23;20004;-91
2023/06/30 00:48:29;;;;;;;5.13;4.63;;;;;;;;;;2562076;23;19996;-91
2023/06/30 00:49:31;;;;;;;5.18;3.95;;;;;;;;;;2547393;23;20017;-92
2023/06/30 00:50:32;;;;;;;5.03;3.75;;;;;;;;;;2544950;23;19997;-92
2023/06/30 00:51:32;;;;;;;4.60;4.20;;;;;;;;;;2533203;23;19997;-92
2023/06/30 00:52:36;;;;;;;5.22;4.70;;;;;;;;;;2552469;23;20003;-91
2023/06/30 00:53:36;;;;;;;4.90;4.00;;;;;;;;;;2554021;23;20113;-92
2023/06/30 00:54:39;;;;;;;6.22;4.10;;;;;;;;;;2544967;23;20048;-92
2023/06/30 00:55:44;;;;;;;5.35;3.90;;;;;;;;;;2533312;23;19994;-93
2023/06/30 00:56:44;;;;;;;5.05;3.92;;;;;;;;;;2533577;23;19997;-92
2023/06/30 00:57:45;;;;;;;8.95;4.78;;;;;;;;;;2532773;23;19998;-92
2023/06/30 00:58:45;;;;;;;7.15;4.60;;;;;;;;;;2532907;23;20089;-92
2023/06/30 00:59:46;;;;;;;6.65;4.55;;;;;;;;;;2532454;23;20026;-93
2023/06/30 01:00:49;;;;;;;5.03;4.30;;;;;;;;;;2548934;23;20085;-92
2023/06/30 01:02:06;;;;;;;4.18;3.70;;;;;;;;;;2544332;23;20230;-91
2023/06/30 01:03:19;;;;;;;4.30;3.80;;;;;;;;;;2549029;23;20001;-92
2023/06/30 01:04:32;;;;;;;4.35;3.55;;;;;;;;;;2545414;23;20032;-92
2023/06/30 01:05:51;;;;;;;4.90;3.85;;;;;;;;;;2561486;23;20416;-92
2023/06/30 01:07:08;;;;;;;3.92;3.17;;;;;;;;;;2561924;23;20035;-91
2023/06/30 01:08:31;;;;;;;4.25;3.80;;;;;;;;;;2557174;23;19985;-91
2023/06/30 01:09:36;;;;;;;6.10;4.35;;;;;;;;;;2561666;23;20068;-92
2023/06/30 01:10:38;;;;;;;4.95;3.70;;;;;;;;;;2557527;23;20083;-92
2023/06/30 01:11:39;;;;;;;4.93;3.83;;;;;;;;;;2561503;23;19993;-93
2023/06/30 01:12:41;;;;;;;4.55;3.90;;;;;;;;;;2557326;23;20414;-92
2023/06/30 01:13:42;;;;;;;4.60;4.20;;;;;;;;;;2561540;23;20072;-92
2023/06/30 01:14:45;;;;;;;4.28;3.88;;;;;;;;;;2556865;23;20439;-93
2023/06/30 01:15:47;;;;;;;4.03;3.63;;;;;;;;;;2544900;23;20005;-91
2023/06/30 01:16:50;;;;;;;4.30;3.58;;;;;;;;;;2557180;23;20080;-90
2023/06/30 01:17:59;;;;;;;4.68;4.00;;;;;;;;;;2560905;23;20076;-93
2023/06/30 01:19:06;;;;;;;5.22;3.65;;;;;;;;;;2556998;23;19997;-92
2023/06/30 01:21:17;;;;;;;4.15;3.75;;;;;;;;;;2522600;23;20184;-90
2023/06/30 01:22:33;;;;;;;5.57;3.47;;;;;;;;;;2543993;23;20001;-90
2023/06/30 01:23:34;;;;;;;4.20;3.85;;;;;;;;;;2549306;23;19994;-90
2023/06/30 01:24:37;;;;;;;5.70;3.80;;;;;;;;;;2549429;23;19993;-90
2023/06/30 01:25:38;;;;;;;6.32;4.05;;;;;;;;;;2549893;23;19997;-90
2023/06/30 01:26:40;;;;;;;11.00;3.92;;;;;;;;;;2549625;23;20001;-91
2023/06/30 01:27:42;;;;;;;5.20;3.70;;;;;;;;;;2544718;23;20048;-90
2023/06/30 01:28:46;;;;;;;5.20;3.80;;;;;;;;;;2548651;23;19993;-89
2023/06/30 01:29:50;;;;;;;5.05;4.20;;;;;;;;;;2544905;23;20001;-91
2023/06/30 01:30:50;;;;;;;4.18;3.58;;;;;;;;;;2533016;23;20027;-90
2023/06/30 01:31:51;;;;;;;5.00;3.50;;;;;;;;;;2544578;23;20025;-91
2023/06/30 01:32:54;;;;;;;7.00;3.60;;;;;;;;;;2532481;23;20032;-91
2023/06/30 01:33:55;;;;;;;3.63;3.33;;;;;;;;;;2548768;23;20033;-90
2023/06/30 01:34:55;;;;;;;6.03;3.50;;;;;;;;;;2544407;23;19997;-90
2023/06/30 01:35:56;;;;;;;5.30;3.97;;;;;;;;;;2548553;23;20032;-90
2023/06/30 01:36:56;;;;;;;4.20;3.45;;;;;;;;;;2544373;23;20012;-90
2023/06/30 01:38:06;;;;;;;5.43;3.78;;;;;;;;;;2532319;23;20421;-90
2023/06/30 01:39:07;;;;;;;5.28;3.95;;;;;;;;;;2552035;23;19997;-91
2023/06/30 01:40:08;;;;;;;4.55;4.15;;;;;;;;;;2552558;23;19999;-90
2023/06/30 01:41:09;;;;;;;4.00;3.60;;;;;;;;;;2560105;23;20002;-90
2023/06/30 01:42:13;;;;;;;6.32;3.90;;;;;;;;;;2559644;23;19985;-91
2023/06/30 01:43:13;;;;;;;5.13;4.40;;;;;;;;;;2559605;23;20005;-91
2023/06/30 01:44:14;;;;;;;7.05;4.43;;;;;;;;;;2556104;23;19994;-89
2023/06/30 01:45:16;;;;;;;4.18;3.75;;;;;;;;;;2549569;23;20051;-90
2023/06/30 01:46:17;;;;;;;4.70;4.13;;;;;;;;;;2550033;23;20090;-92
2023/06/30 01:47:18;;;;;;;4.47;3.42;;;;;;;;;;2544889;23;20005;-92
2023/06/30 01:48:19;;;;;;;6.30;4.10;;;;;;;;;;2548735;23;20060;-93
2023/06/30 01:49:22;;;;;;;6.10;4.05;;;;;;;;;;2544528;23;19993;-92
2023/06/30 01:50:23;;;;;;;4.65;4.10;;;;;;;;;;2532754;23;20010;-92
2023/06/30 01:51:24;;;;;;;4.20;3.80;;;;;;;;;;2548928;23;20013;-92
2023/06/30 01:52:24;;;;;;;4.25;3.85;;;;;;;;;;2549437;23;20036;-91
2023/06/30 01:53:27;;;;;;;5.18;3.83;;;;;;;;;;2544255;23;20001;-92
2023/06/30 01:54:28;;;;;;;6.25;3.92;;;;;;;;;;2532277;23;20001;-91
2023/06/30 01:55:29;;;;;;;4.78;3.70;;;;;;;;;;2548336;23;20407;-92
2023/06/30 01:56:29;;;;;;;4.60;3.88;;;;;;;;;;2549702;23;20079;-92
2023/06/30 01:57:30;;;;;;;5.13;3.70;;;;;;;;;;2548479;23;20024;-92
2023/06/30 01:58:31;;;;;;;4.72;3.85;;;;;;;;;;2549198;23;20000;-92
2023/06/30 01:59:31;;;;;;;4.90;3.67;;;;;;;;;;2544548;23;19993;-91
2023/06/30 02:00:34;;;;;;;4.00;3.70;;;;;;;;;;2532468;23;20087;-92
2023/06/30 02:01:34;;;;;;;4.40;3.78;;;;;;;;;;2549123;23;20396;-92
2023/06/30 02:02:35;;;;;;;5.53;3.75;;;;;;;;;;2549600;23;19994;-90
2023/06/30 02:03:35;;;;;;;4.93;4.00;;;;;;;;;;2550591;23;20072;-90
2023/06/30 02:04:36;;;;;;;5.72;4.10;;;;;;;;;;2545779;23;20027;-90
2023/06/30 02:05:36;;;;;;;4.07;3.67;;;;;;;;;;2548709;23;20083;-92
2023/06/30 02:06:37;;;;;;;5.25;3.95;;;;;;;;;;2544302;23;20025;-91
2023/06/30 02:07:37;;;;;;;4.50;4.10;;;;;;;;;;2544368;23;20025;-92
2023/06/30 02:08:38;;;;;;;4.18;3.80;;;;;;;;;;2532117;23;20308;-92
2023/06/30 02:09:41;;;;;;;5.43;4.50;;;;;;;;;;2532409;23;20001;-93
2023/06/30 02:10:42;;;;;;;4.05;3.55;;;;;;;;;;2544051;23;20074;-93
2023/06/30 02:11:42;;;;;;;4.65;4.13;;;;;;;;;;2531940;23;20412;-93
2023/06/30 02:12:43;;;;;;;4.97;3.83;;;;;;;;;;2548593;23;19993;-93
2023/06/30 02:13:43;;;;;;;5.55;3.70;;;;;;;;;;2544383;23;20084;-92
2023/06/30 02:14:43;;;;;;;4.50;3.78;;;;;;;;;;2532228;23;20067;-91
2023/06/30 02:15:44;;;;;;;6.18;3.85;;;;;;;;;;2548760;23;20446;-91
2023/06/30 02:16:44;;;;;;;4.72;3.60;;;;;;;;;;2543942;23;20395;-91
2023/06/30 02:17:45;;;;;;;4.15;3.70;;;;;;;;;;2544943;23;20424;-90
2023/06/30 02:18:45;;;;;;;4.22;3.78;;;;;;;;;;2544433;23;20017;-91
2023/06/30 02:19:46;;;;;;;8.30;4.45;;;;;;;;;;2544626;23;20484;-90
2023/06/30 02:20:49;;;;;;;4.10;3.70;;;;;;;;;;2531921;23;20025;-91
2023/06/30 02:21:50;;;;;;;4.35;3.88;;;;;;;;;;2548618;23;20411;-92
2023/06/30 02:22:53;;;;;;;4.25;3.65;;;;;;;;;;2544338;23;20019;-91
2023/06/30 02:23:54;;;;;;;5.50;3.85;;;;;;;;;;2532506;23;19993;-91
2023/06/30 02:24:57;;;;;;;4.53;3.92;;;;;;;;;;2532042;23;20405;-91
2023/06/30 02:26:07;;;;;;;;;;;;;;;;;;;;;
2023/06/30 02:27:08;;;;;;;4.72;3.75;;;;;;;;;;2549063;23;20095;-92
2023/06/30 02:28:09;;;;;;;4.97;4.50;;;;;;;;;;2551272;23;20024;-90
2023/06/30 02:29:09;;;;;;;4.78;4.18;;;;;;;;;;2553609;23;19993;-92
2023/06/30 02:30:14;;;;;;;4.30;3.90;;;;;;;;;;2544046;23;20571;-91
2023/06/30 02:31:17;;;;;;;5.63;4.18;;;;;;;;;;2548318;23;20400;-92
2023/06/30 02:32:21;;;;;;;4.90;3.85;;;;;;;;;;2549409;23;20009;-92
2023/06/30 02:33:23;;;;;;;4.30;3.65;;;;;;;;;;2544490;23;20004;-93
2023/06/30 02:34:23;;;;;;;7.07;4.20;;;;;;;;;;2548532;23;20004;-93
2023/06/30 02:35:26;;;;;;;4.90;4.22;;;;;;;;;;2549537;23;20009;-93
2023/06/30 02:36:26;;;;;;;4.68;3.90;;;;;;;;;;2544493;23;20624;-93
2023/06/30 02:37:27;;;;;;;7.60;3.92;;;;;;;;;;2532069;23;20150;-93
2023/06/30 02:38:27;;;;;;;5.20;3.80;;;;;;;;;;2531922;23;20391;-93
2023/06/30 02:39:32;;;;;;;4.28;3.88;;;;;;;;;;2544450;23;20379;-94
2023/06/30 02:40:33;;;;;;;5.97;4.38;;;;;;;;;;2548920;23;19993;-92
2023/06/30 02:41:33;;;;;;;5.85;4.25;;;;;;;;;;2549245;23;19997;-92
2023/06/30 02:42:34;;;;;;;5.75;3.80;;;;;;;;;;2544506;23;19998;-93
2023/06/30 02:43:34;;;;;;;4.85;4.10;;;;;;;;;;2548484;23;20055;-93
2023/06/30 02:44:35;;;;;;;4.43;4.03;;;;;;;;;;2544489;23;19998;-92
2023/06/30 02:45:35;;;;;;;5.43;4.47;;;;;;;;;;2546033;23;20084;-92
2023/06/30 02:46:38;;;;;;;5.57;3.90;;;;;;;;;;2549520;23;20455;-93
2023/06/30 02:47:40;;;;;;;6.50;4.28;;;;;;;;;;2549147;23;20634;-93
2023/06/30 02:48:42;;;;;;;5.18;4.70;;;;;;;;;;2544149;23;20009;-93
2023/06/30 02:49:46;;;;;;;4.82;4.30;;;;;;;;;;2532493;23;20380;-94
2023/06/30 02:50:46;;;;;;;5.45;4.10;;;;;;;;;;2544362;23;20001;-92
2023/06/30 02:51:47;;;;;;;8.07;5.00;;;;;;;;;;2548303;23;20440;-92
2023/06/30 02:52:47;;;;;;;6.50;3.80;;;;;;;;;;2549052;23;20072;-91
2023/06/30 02:53:48;;;;;;;5.20;4.05;;;;;;;;;;2543977;23;20016;-92
2023/06/30 02:54:48;;;;;;;5.30;4.07;;;;;;;;;;2548486;23;20001;-92
2023/06/30 02:55:49;;;;;;;8.05;4.93;;;;;;;;;;2531538;23;20096;-92
2023/06/30 02:56:49;;;;;;;8.27;4.32;;;;;;;;;;2520033;23;20014;-92
2023/06/30 02:57:50;;;;;;;9.27;4.03;;;;;;;;;;2548159;23;20002;-93
2023/06/30 02:58:50;;;;;;;5.07;4.45;;;;;;;;;;2549255;23;20352;-92
2023/06/30 02:59:51;;;;;;;5.47;3.80;;;;;;;;;;2549252;23;20432;-92
2023/06/30 03:00:51;;;;;;;7.03;4.53;;;;;;;;;;2544317;23;19997;-92
2023/06/30 03:01:52;;;;;;;4.90;4.10;;;;;;;;;;2532120;23;20425;-92
2023/06/30 03:02:52;;;;;;;6.28;4.32;;;;;;;;;;2102918;23;10002838;-92
2023/06/30 03:03:55;;;;;;;5.68;4.66;;;;;;;;;;2112055;23;10294279;-91
2023/06/30 03:04:55;;;;;;;7.28;4.00;;;;;;;;;;2552031;23;20021;-91
2023/06/30 03:05:56;;;;;;;4.00;3.60;;;;;;;;;;2546419;23;20137;-91
2023/06/30 03:06:56;;;;;;;4.93;3.85;;;;;;;;;;2533822;23;20002;-92
2023/06/30 03:07:59;;;;;;;6.18;4.22;;;;;;;;;;2533792;23;20077;-92
2023/06/30 03:09:10;;;;;;;4.25;3.85;;;;;;;;;;2534460;23;19990;-92
2023/06/30 03:10:17;;;;;;;4.85;3.70;;;;;;;;;;2540139;23;20412;-91
2023/06/30 03:11:18;;;;;;;7.07;4.18;;;;;;;;;;2535518;23;20009;-92
2023/06/30 03:12:18;;;;;;;4.30;3.70;;;;;;;;;;2550930;23;19994;-92
2023/06/30 03:13:19;;;;;;;7.55;4.05;;;;;;;;;;2551015;23;20081;-91
2023/06/30 03:14:19;;;;;;;6.63;4.35;;;;;;;;;;2544715;23;20021;-92
2023/06/30 03:15:20;;;;;;;5.95;4.03;;;;;;;;;;2548298;23;19997;-90
2023/06/30 03:16:20;;;;;;;4.43;4.00;;;;;;;;;;2551413;23;19993;-89
2023/06/30 03:17:20;;;;;;;4.85;3.85;;;;;;;;;;2544304;23;20428;-90
2023/06/30 03:18:21;;;;;;;4.68;3.65;;;;;;;;;;2531444;23;20045;-90
2023/06/30 03:19:21;;;;;;;4.78;4.30;;;;;;;;;;2547567;23;20001;-90
2023/06/30 03:20:23;;;;;;;4.32;3.92;;;;;;;;;;2543616;23;20009;-89
2023/06/30 03:21:23;;;;;;;4.57;3.75;;;;;;;;;;2547756;23;20006;-89
2023/06/30 03:22:24;;;;;;;5.43;4.28;;;;;;;;;;2543846;23;20010;-89
2023/06/30 03:23:24;;;;;;;4.50;4.10;;;;;;;;;;2531742;23;20032;-90
2023/06/30 03:24:25;;;;;;;6.75;3.70;;;;;;;;;;2547980;23;20329;-89
2023/06/30 03:25:25;;;;;;;4.72;3.90;;;;;;;;;;2548866;23;20462;-89
2023/06/30 03:26:28;;;;;;;4.15;3.75;;;;;;;;;;2548708;23;20356;-89
2023/06/30 03:27:31;;;;;;;6.05;3.67;;;;;;;;;;2543296;23;20049;-89
2023/06/30 03:28:32;;;;;;;4.50;3.95;;;;;;;;;;2528385;23;19998;-89
2023/06/30 03:29:32;;;;;;;5.63;3.90;;;;;;;;;;2542971;23;20002;-90
2023/06/30 03:30:32;;;;;;;5.10;4.15;;;;;;;;;;2547552;23;19994;-88
2023/06/30 03:31:33;;;;;;;13.85;6.18;;;;;;;;;;2543648;23;20001;-89
2023/06/30 03:32:33;;;;;;;6.53;4.32;;;;;;;;;;2531417;23;20004;-90
2023/06/30 03:33:34;;;;;;;5.05;3.97;;;;;;;;;;2547964;23;20459;-90
2023/06/30 03:34:34;;;;;;;9.98;4.47;;;;;;;;;;2543624;23;20004;-90
2023/06/30 03:35:35;;;;;;;5.22;4.38;;;;;;;;;;2548182;23;20004;-90
2023/06/30 03:36:35;;;;;;;6.00;4.20;;;;;;;;;;2543736;23;20021;-90
2023/06/30 03:38:01;;;;;;;5.68;3.90;;;;;;;;;;2547119;23;20024;-90
2023/06/30 03:39:05;;;;;;;5.13;3.60;;;;;;;;;;2547035;23;20449;-90
2023/06/30 03:42:42;;;;;;;4.47;4.07;;;;;;;;;;2548232;23;19998;-90
2023/06/30 03:43:42;;;;;;;6.28;3.63;;;;;;;;;;2544222;23;20001;-90
2023/06/30 03:44:43;;;;;;;6.65;4.05;;;;;;;;;;2548194;23;19997;-90
2023/06/30 03:45:43;;;;;;;5.03;3.72;;;;;;;;;;2094645;23;10580501;-90
2023/06/30 03:46:43;;;;;;;4.32;3.85;;;;;;;;;;2543843;23;20444;-89
2023/06/30 03:47:44;;;;;;;6.65;4.40;;;;;;;;;;2531759;23;20503;-90
2023/06/30 03:48:46;;;;;;;5.05;4.20;;;;;;;;;;2547911;23;20089;-89
2023/06/30 03:49:46;;;;;;;5.95;4.45;;;;;;;;;;2543944;23;20076;-90
2023/06/30 03:50:55;;;;;;;4.80;4.30;;;;;;;;;;2531441;23;20029;-91
2023/06/30 03:51:56;;;;;;;4.90;4.18;;;;;;;;;;2547976;23;20297;-90
2023/06/30 03:55:04;;;;;;;5.50;4.07;;;;;;;;;;2548286;23;20072;-90
2023/06/30 03:56:04;;;;;;;7.30;3.90;;;;;;;;;;2543992;23;20016;-89
2023/06/30 03:57:05;;;;;;;4.60;4.20;;;;;;;;;;2548080;23;20001;-89
2023/06/30 04:02:59;;;;;;;7.53;5.18;;;;;;;;;;2522600;23;20098;-89
2023/06/30 04:04:00;;;;;;;6.63;4.80;;;;;;;;;;2522131;23;19995;-89
2023/06/30 04:05:00;;;;;;;5.07;4.35;;;;;;;;;;1257810;23;10000995;-90
2023/06/30 04:06:03;;;;;;;4.85;4.35;;;;;;;;;;2556060;23;20056;-90
2023/06/30 04:07:26;;;;;;;5.95;4.13;;;;;;;;;;2130103;23;10000498;-90
2023/06/30 04:10:43;;;;;;;4.88;3.92;;;;;;;;;;2499241;23;20026;-90
2023/06/30 04:11:57;;;;;;;5.95;4.10;;;;;;;;;;2500131;23;20059;-90
2023/06/30 04:13:15;;;;;;;4.80;3.80;;;;;;;;;;2483885;23;20390;-91
2023/06/30 04:14:16;;;;;;;4.78;4.25;;;;;;;;;;2476073;23;20007;-91
2023/06/30 04:15:17;;;;;;;4.93;4.40;;;;;;;;;;2504290;23;20088;-90
2023/06/30 04:16:17;;;;;;;5.43;3.95;;;;;;;;;;2548707;23;20074;-90
2023/06/30 04:17:18;;;;;;;6.60;4.28;;;;;;;;;;2544230;23;19994;-91
2023/06/30 04:18:19;;;;;;;6.32;4.43;;;;;;;;;;2543905;23;20004;-91
2023/06/30 04:19:23;;;;;;;5.82;4.35;;;;;;;;;;2544367;23;19994;-90
2023/06/30 04:20:23;;;;;;;6.53;5.15;;;;;;;;;;2548656;23;20427;-90
2023/06/30 04:21:24;;;;;;;7.03;4.82;;;;;;;;;;2544511;23;20107;-91
2023/06/30 04:22:27;;;;;;;9.82;4.57;;;;;;;;;;2548975;23;19997;-91
2023/06/30 04:23:28;;;;;;;5.65;4.47;;;;;;;;;;2544767;23;20129;-90
2023/06/30 04:24:28;;;;;;;6.93;4.47;;;;;;;;;;2549149;23;19998;-91
2023/06/30 04:25:29;;;;;;;6.00;4.18;;;;;;;;;;2549895;23;19997;-90
2023/06/30 04:26:49;;;;;;;7.13;4.25;;;;;;;;;;2544576;23;19997;-90
2023/06/30 04:28:33;;;;;;;5.88;3.95;;;;;;;;;;2535254;23;20079;-91
2023/06/30 04:32:02;;;;;;;7.80;4.13;;;;;;;;;;2450295;24;20441;-91
2023/06/30 04:33:04;;;;;;;6.45;4.28;;;;;;;;;;2508916;23;19994;-90
2023/06/30 04:34:06;;;;;;;5.82;4.65;;;;;;;;;;2548897;23;19993;-90
2023/06/30 04:41:29;;;;;;;4.32;3.72;;;;;;;;;;2511658;23;19995;-91
2023/06/30 04:43:00;;;;;;;7.53;4.18;;;;;;;;;;2511722;23;20301;-92
2023/06/30 04:44:00;;;;;;;4.00;3.60;;;;;;;;;;2495432;23;20460;-90
2023/06/30 04:45:04;;;;;;;6.43;3.10;;;;;;;;;;2483702;23;20003;-90
2023/06/30 04:46:19;;;;;;;3.78;3.30;;;;;;;;;;2484383;23;19999;-89
2023/06/30 04:47:31;;;;;;;4.10;3.15;;;;;;;;;;2486837;23;20003;-90
2023/06/30 04:48:35;;;;;;;5.88;3.42;;;;;;;;;;2502254;23;20461;-90
2023/06/30 04:49:35;;;;;;;6.97;3.20;;;;;;;;;;2511884;23;20015;-89
2023/06/30 04:50:38;;;;;;;5.57;3.40;;;;;;;;;;2507941;23;20368;-90
2023/06/30 04:51:39;;;;;;;4.55;3.15;;;;;;;;;;2524766;23;20002;-90
2023/06/30 04:52:42;;;;;;;3.72;3.40;;;;;;;;;;2554730;23;19993;-91
2023/06/30 04:53:42;;;;;;;6.68;3.40;;;;;;;;;;2544508;23;20156;-91
2023/06/30 04:54:46;;;;;;;4.22;3.80;;;;;;;;;;2548938;23;20076;-90
2023/06/30 04:55:50;;;;;;;3.70;3.40;;;;;;;;;;2544766;23;19993;-91
2023/06/30 04:56:50;;;;;;;6.15;3.50;;;;;;;;;;2548593;23;20020;-92
2023/06/30 04:57:53;;;;;;;3.53;3.22;;;;;;;;;;2544396;23;20403;-92
2023/06/30 04:58:54;;;;;;;3.53;3.22;;;;;;;;;;2532438;23;20452;-92
2023/06/30 04:59:54;;;;;;;7.85;3.45;;;;;;;;;;2549051;23;20020;-91
2023/06/30 05:00:58;;;;;;;4.70;3.45;;;;;;;;;;2544339;23;20104;-92
2023/06/30 05:02:00;;;;;;;3.40;3.10;;;;;;;;;;2549165;23;20148;-93
2023/06/30 05:03:08;;;;;;;5.13;3.05;;;;;;;;;;2544686;23;20097;-93
2023/06/30 05:06:26;;;;;;;3.55;3.05;;;;;;;;;;2549651;23;20440;-92
2023/06/30 05:07:29;;;;;;;2.92;2.67;;;;;;;;;;2544763;23;20059;-93
2023/06/30 05:08:29;;;;;;;3.03;2.70;;;;;;;;;;2548664;23;20451;-92
2023/06/30 05:09:33;;;;;;;4.38;3.25;;;;;;;;;;2116558;23;10108762;-93
2023/06/30 05:10:36;;;;;;;4.78;3.10;;;;;;;;;;2544108;23;20501;-93
2023/06/30 05:11:39;;;;;;;3.47;2.85;;;;;;;;;;2533217;23;20005;-94
2023/06/30 05:12:40;;;;;;;3.85;3.00;;;;;;;;;;2533118;23;20073;-93
2023/06/30 05:13:42;;;;;;;3.20;2.90;;;;;;;;;;2549306;23;20410;-94
2023/06/30 05:14:43;;;;;;;2.97;2.70;;;;;;;;;;2549720;23;20020;-94
2023/06/30 05:16:13;;;;;;;;;;;;;;;;;;;;;
2023/06/30 05:17:57;;;;;;;;;;;;;;;;;;;;;
2023/06/30 05:19:07;;;;;;;4.25;3.13;;;;;;;;;;2500559;23;20007;-92
2023/06/30 05:20:56;;;;;;;4.95;2.95;;;;;;;;;;2549591;23;19993;-92
2023/06/30 05:24:20;;;;;;;3.88;2.97;;;;;;;;;;2549519;23;19998;-92
2023/06/30 05:25:40;;;;;;;;;;;;;;;;;;2549051;23;20009;-92
2023/06/30 05:26:48;;;;;;;3.10;2.80;;;;;;;;;;2536409;23;20259;-91
2023/06/30 05:27:53;;;;;;;4.32;2.88;;;;;;;;;;2548878;23;20260;-94
2023/06/30 05:28:53;;;;;;;7.18;3.22;;;;;;;;;;2548601;23;20324;-92
2023/06/30 05:30:27;;;;;;;3.50;3.20;;;;;;;;;;2544800;23;20049;-92
2023/06/30 05:37:16;;;;;;;6.93;3.30;;;;;;;;;;2549922;23;20029;-92
2023/06/30 05:38:19;;;;;;;8.30;3.28;;;;;;;;;;2543813;23;20005;-92
2023/06/30 05:39:20;;;;;;;4.38;3.08;;;;;;;;;;2544685;23;20080;-93
2023/06/30 05:40:23;;;;;;;5.32;3.13;;;;;;;;;;2536125;23;20348;-90
2023/06/30 05:41:23;;;;;;;3.45;2.70;;;;;;;;;;2532806;23;20001;-91
2023/06/30 05:42:24;;;;;;;7.90;2.80;;;;;;;;;;2531906;23;20073;-90
2023/06/30 05:43:26;;;;;;;4.05;2.70;;;;;;;;;;2532374;23;19998;-92
2023/06/30 05:44:35;;;;;;;5.95;3.03;;;;;;;;;;2532158;23;20444;-92
2023/06/30 05:45:39;;;;;;;6.45;2.67;;;;;;;;;;2544278;23;20013;-91
2023/06/30 05:46:39;;;;;;;4.10;2.92;;;;;;;;;;2548217;23;20392;-91
2023/06/30 05:47:40;;;;;;;3.60;3.05;;;;;;;;;;2549008;23;19993;-91
2023/06/30 05:48:50;;;;;;;3.78;3.40;;;;;;;;;;2549071;23;19993;-92
2023/06/30 05:49:50;;;;;;;3.58;3.20;;;;;;;;;;2543805;23;20021;-91
2023/06/30 05:50:51;;;;;;;4.32;3.20;;;;;;;;;;2548327;23;19993;-91
2023/06/30 05:51:51;;;;;;;4.82;3.17;;;;;;;;;;2548795;23;20001;-91
2023/06/30 05:52:52;;;;;;;6.13;3.30;;;;;;;;;;2549168;23;20475;-91
2023/06/30 05:53:52;;;;;;;5.05;3.35;;;;;;;;;;2123007;23;10001502;-91
2023/06/30 05:54:53;;;;;;;3.40;3.10;;;;;;;;;;2549207;23;19993;-91
2023/06/30 05:55:55;;;;;;;3.30;3.00;;;;;;;;;;2103894;23;10365376;-90
2023/06/30 05:57:16;;;;;;;4.70;3.03;;;;;;;;;;2531724;23;20261;-91
2023/06/30 05:58:40;;;;;;;4.57;3.38;;;;;;;;;;2548325;23;20407;-91
2023/06/30 06:00:01;;;;;;;4.72;2.97;;;;;;;;;;2111394;23;10274485;-92
2023/06/30 06:01:53;;;;;;;4.55;2.70;;;;;;;;;;2543633;23;20007;-92
2023/06/30 06:03:48;;;;;;;4.25;2.83;;;;;;;;;;2549252;23;20443;-92
2023/06/30 06:07:45;;;;;;;;;;;;;;;;;;;;;
2023/06/30 06:10:56;;;;;;;3.40;2.95;;;;;;;;;;2411349;24;20350;-88
2023/06/30 06:12:32;;;;;;;7.60;2.90;;;;;;;;;;2410959;24;20010;-89
2023/06/30 06:14:04;;;;;;;;;;;;;;;;;;;;;
2023/06/30 06:15:08;;;;;;;5.18;2.55;;;;;;;;;;2423570;24;20008;-89
2023/06/30 06:16:11;;;;;;;3.58;2.60;;;;;;;;;;2430174;24;20401;-89
2023/06/30 06:17:14;;;;;;;3.60;2.35;;;;;;;;;;2430469;24;20026;-91
2023/06/30 06:18:41;;;;;;;;;;;;;;;;;;;;;
2023/06/30 06:19:54;;;;;;;3.67;3.25;;;;;;;;;;2454704;24;20060;-92
2023/06/30 06:21:41;;;;;;;2.60;2.40;;;;;;;;;;2484113;23;20000;-93
2023/06/30 06:23:11;;;;;;;;;;;;;;;;;;;;;
2023/06/30 06:30:19;;;;;;;3.45;2.20;;;;;;;;;;2551395;23;20189;-92
2023/06/30 06:31:24;;;;;;;3.05;2.28;;;;;;;;;;2561281;23;20768;-91
2023/06/30 06:32:24;;;;;;;2.17;1.98;;;;;;;;;;2559950;23;20331;-91
2023/06/30 06:34:14;;;;;;;3.17;2.00;;;;;;;;;;2560354;23;20068;-93
2023/06/30 06:35:31;;;;;;;2.78;2.38;;;;;;;;;;2555634;23;20031;-92
2023/06/30 06:36:34;;;;;;;3.25;2.40;;;;;;;;;;2560573;23;19993;-92
2023/06/30 06:37:38;;;;;;;2.30;2.10;;;;;;;;;;2556260;23;20521;-93
2023/06/30 06:38:39;;;;;;;3.80;2.20;;;;;;;;;;2542832;23;20071;-92
2023/06/30 06:39:39;;;;;;;2.45;2.25;;;;;;;;;;2543371;23;19997;-92
2023/06/30 06:40:42;;;;;;;2.78;2.40;;;;;;;;;;2543447;23;19997;-90
2023/06/30 06:41:44;;;;;;;2.53;2.13;;;;;;;;;;2560094;23;20135;-91
2023/06/30 06:42:50;;;;;;;4.05;2.22;;;;;;;;;;2555946;23;20370;-93
2023/06/30 06:43:50;;;;;;;3.33;2.10;;;;;;;;;;2560643;23;20355;-90
2023/06/30 06:44:51;;;;;;;2.53;2.17;;;;;;;;;;2561202;23;19993;-90
2023/06/30 06:45:56;;;;;;;2.58;2.05;;;;;;;;;;2556290;23;20091;-92
2023/06/30 06:47:53;;;;;;;2.42;2.05;;;;;;;;;;2560586;23;20116;-93
2023/06/30 06:48:59;;;;;;;2.40;2.10;;;;;;;;;;2116351;23;10003149;-92
2023/06/30 06:50:15;;;;;;;;;;;;;;;;;;;;;
2023/06/30 06:51:19;;;;;;;2.40;2.20;;;;;;;;;;2540027;23;20013;-91
2023/06/30 07:04:40;;;;;;;2.13;1.60;;;;;;;;;;2524414;23;20002;-92
2023/06/30 07:06:04;;;;;;;1.80;1.63;;;;;;;;;;2524040;23;19999;-92
2023/06/30 07:09:23;;;;;;;;;;;;;;;;;;2499002;23;19999;-92
2023/06/30 07:10:28;;;;;;;2.63;2.20;;;;;;;;;;2503323;23;20427;-92
2023/06/30 07:13:34;;;;;;;2.50;2.30;;;;;;;;;;2488491;23;20008;-90
2023/06/30 07:14:36;;;;;;;2.55;2.03;;;;;;;;;;2508331;23;20006;-91
2023/06/30 07:15:36;;;;;;;2.88;2.00;;;;;;;;;;2512232;23;20176;-90
2023/06/30 07:18:47;;;;;;;2.05;1.85;;;;;;;;;;2465397;23;20009;-91
2023/06/30 07:19:47;;;;;;;1.88;1.77;;;;;;;;;;2520393;23;20002;-94
2023/06/30 07:20:49;;;;;;;2.58;2.15;;;;;;;;;;2525919;23;20026;-94
2023/06/30 07:21:51;;;;;;;1.88;1.77;;;;;;;;;;2508652;23;20022;-94
2023/06/30 07:22:54;;;;;;;1.95;1.60;;;;;;;;;;2497863;23;20147;-96
2023/06/30 07:23:59;;;;;;;2.37;2.07;;;;;;;;;;2092563;23;10000233;-94
2023/06/30 07:25:02;;;;;;;2.42;1.98;;;;;;;;;;2524675;23;20262;-91
2023/06/30 07:26:02;;;;;;;2.70;1.90;;;;;;;;;;2507706;23;20003;-92
2023/06/30 07:27:03;;;;;;;2.13;1.80;;;;;;;;;;2515828;23;20018;-91
2023/06/30 07:28:04;;;;;;;3.45;1.73;;;;;;;;;;2507719;23;20078;-91
2023/06/30 07:29:12;;;;;;;2.58;1.67;;;;;;;;;;2496895;23;20090;-96
2023/06/30 07:30:13;;;;;;;2.47;1.60;;;;;;;;;;2513264;23;19995;-95
2023/06/30 07:31:15;;;;;;;3.53;1.70;;;;;;;;;;2498392;23;20524;-94